Time;durP1;ratioP1;P1;durP2;ratioP2;P2;SDS_P1;SDS_P2;PMS_P1;PMS_P2;Temp;Humidity;BMP_temperature;BMP_pressure;BME280_temperature;BME280_humidity;BME280_pressure;Samples;Min_cycle;Max_cycle;Signal;HPM_P1;HPM_P2
2023/04/23 00:00:20;;;;;;;99.53;52.30;;;7.10;99.90;;;;;;4937327;28;20161;-63
2023/04/23 00:02:51;;;;;;;100.35;50.90;;;7.10;99.90;;;;;;4920190;28;20051;-64
2023/04/23 00:05:18;;;;;;;92.55;51.10;;;7.10;99.90;;;;;;4915298;28;20054;-64
2023/04/23 00:07:43;;;;;;;102.60;52.60;;;7.20;99.90;;;;;;4922868;28;20090;-64
2023/04/23 00:10:10;;;;;;;98.18;52.85;;;7.00;99.90;;;;;;4938987;28;20577;-63
2023/04/23 00:12:35;;;;;;;118.90;53.78;;;7.10;99.90;;;;;;4920880;28;20126;-64
2023/04/23 00:15:04;;;;;;;107.82;54.28;;;7.10;99.90;;;;;;4918171;28;20570;-63
2023/04/23 00:17:30;;;;;;;109.53;53.90;;;7.00;99.90;;;;;;4952578;28;20162;-64
2023/04/23 00:19:55;;;;;;;114.00;53.88;;;7.00;99.90;;;;;;4960045;28;20053;-63
2023/04/23 00:22:21;;;;;;;127.95;60.50;;;7.00;99.90;;;;;;4940557;28;20043;-63
2023/04/23 00:24:47;;;;;;;119.50;58.35;;;6.80;99.90;;;;;;4959017;28;20635;-65
2023/04/23 00:27:13;;;;;;;87.95;51.88;;;6.90;99.90;;;;;;4959083;28;20113;-64
2023/04/23 00:29:39;;;;;;;105.97;54.85;;;6.80;99.90;;;;;;4953607;28;20057;-64
2023/04/23 00:32:05;;;;;;;106.10;58.58;;;6.90;99.90;;;;;;4951154;28;20371;-64
2023/04/23 00:34:31;;;;;;;115.32;59.30;;;6.90;99.90;;;;;;4952537;28;20026;-63
2023/04/23 00:36:56;;;;;;;116.80;61.95;;;6.80;99.90;;;;;;4953143;28;20069;-64
2023/04/23 00:39:22;;;;;;;133.88;63.47;;;6.90;99.90;;;;;;4955116;28;20486;-64
2023/04/23 00:41:48;;;;;;;140.05;66.57;;;7.00;99.90;;;;;;4959649;28;20536;-63
2023/04/23 00:44:13;;;;;;;114.18;61.33;;;6.90;99.90;;;;;;4955861;28;20082;-64
2023/04/23 00:46:39;;;;;;;138.18;65.15;;;7.00;99.90;;;;;;4957414;28;20046;-64
2023/04/23 00:49:06;;;;;;;115.07;62.22;;;6.90;99.90;;;;;;4955360;28;20074;-63
2023/04/23 00:51:32;;;;;;;139.32;67.63;;;7.10;99.90;;;;;;4957142;28;20425;-63
2023/04/23 00:53:57;;;;;;;134.90;66.15;;;6.90;99.90;;;;;;4935876;28;20299;-63
2023/04/23 00:56:24;;;;;;;142.20;69.95;;;6.90;99.90;;;;;;4940938;28;20137;-64
2023/04/23 00:58:53;;;;;;;132.43;67.68;;;7.10;99.90;;;;;;4956406;28;20346;-64
2023/04/23 01:01:22;;;;;;;131.82;67.95;;;7.10;99.90;;;;;;4953684;28;20054;-65
2023/04/23 01:03:49;;;;;;;174.90;74.88;;;7.00;99.90;;;;;;4958207;28;20306;-64
2023/04/23 01:06:15;;;;;;;132.10;65.57;;;6.80;99.90;;;;;;4940020;28;20105;-63
2023/04/23 01:08:46;;;;;;;134.82;66.75;;;7.10;99.90;;;;;;4959943;28;20042;-63
2023/04/23 01:11:15;;;;;;;127.82;65.60;;;7.00;99.90;;;;;;4955812;28;20145;-63
2023/04/23 01:13:42;;;;;;;161.20;72.13;;;7.00;99.90;;;;;;4958666;28;20053;-64
2023/04/23 01:16:09;;;;;;;154.85;72.35;;;7.00;99.90;;;;;;4962563;28;20046;-64
2023/04/23 01:18:35;;;;;;;147.23;67.53;;;6.90;99.90;;;;;;4955795;28;20054;-63
2023/04/23 01:21:03;;;;;;;152.35;69.10;;;7.00;99.90;;;;;;4961136;28;20547;-64
2023/04/23 01:23:30;;;;;;;205.88;79.43;;;6.90;99.90;;;;;;4958599;28;20156;-64
2023/04/23 01:25:56;;;;;;;182.00;75.45;;;7.00;99.90;;;;;;4956685;28;20057;-64
2023/04/23 01:28:22;;;;;;;177.95;78.15;;;7.00;99.90;;;;;;4943671;28;20069;-64
2023/04/23 01:30:48;;;;;;;221.20;84.30;;;7.00;99.90;;;;;;4959498;28;20492;-63
2023/04/23 01:33:14;;;;;;;448.08;110.07;;;7.10;99.90;;;;;;4959215;28;20050;-64
2023/04/23 01:35:41;;;;;;;825.08;123.95;;;7.10;99.90;;;;;;4930868;28;20080;-64
2023/04/23 01:38:09;;;;;;;913.40;129.25;;;7.20;99.90;;;;;;4964538;28;20077;-63
2023/04/23 01:40:36;;;;;;;641.65;121.25;;;7.30;99.90;;;;;;4946996;28;20041;-63
2023/04/23 01:43:03;;;;;;;719.47;126.75;;;7.30;99.90;;;;;;4967059;28;20049;-64
2023/04/23 01:45:30;;;;;;;808.17;123.80;;;7.40;99.90;;;;;;4983263;28;20399;-64
2023/04/23 01:47:55;;;;;;;876.55;124.13;;;7.40;99.90;;;;;;4982391;28;20086;-65
2023/04/23 01:50:23;;;;;;;1068.43;136.52;;;7.50;99.90;;;;;;4976968;28;20600;-64
2023/04/23 01:52:49;;;;;;;705.20;103.30;;;7.50;99.90;;;;;;4979297;28;20142;-64
2023/04/23 01:55:17;;;;;;;812.92;120.10;;;7.50;99.90;;;;;;4969323;28;20061;-64
2023/04/23 01:57:44;;;;;;;913.15;119.65;;;7.50;99.90;;;;;;4966205;28;20046;-64
2023/04/23 02:00:11;;;;;;;794.67;128.30;;;7.50;99.90;;;;;;4962026;28;20492;-64
2023/04/23 02:02:38;;;;;;;725.33;120.55;;;7.60;99.90;;;;;;4963166;28;20104;-63
2023/04/23 02:05:17;;;;;;;491.35;97.30;;;7.50;99.90;;;;;;4963057;28;20044;-64
2023/04/23 02:07:44;;;;;;;505.65;102.93;;;7.60;99.90;;;;;;4960197;28;20042;-64
2023/04/23 02:10:10;;;;;;;435.73;100.22;;;7.50;99.90;;;;;;4960093;28;20053;-64
2023/04/23 02:12:36;;;;;;;371.90;97.32;;;7.50;99.90;;;;;;4962846;28;20042;-64
2023/04/23 02:15:03;;;;;;;298.77;91.00;;;7.50;99.90;;;;;;4961833;28;20458;-63
2023/04/23 02:17:29;;;;;;;315.88;90.22;;;7.50;99.90;;;;;;4950996;28;20153;-64
2023/04/23 02:19:57;;;;;;;370.02;93.15;;;7.50;99.90;;;;;;4964206;28;20362;-64
2023/04/23 02:22:24;;;;;;;420.23;97.57;;;7.60;99.90;;;;;;4947491;28;20077;-65
2023/04/23 02:24:53;;;;;;;386.17;90.15;;;7.60;99.90;;;;;;4983865;28;20400;-64
2023/04/23 02:27:19;;;;;;;329.65;78.82;;;7.60;99.90;;;;;;4960641;28;20080;-64
2023/04/23 02:29:47;;;;;;;400.95;90.00;;;7.50;99.90;;;;;;4958545;28;20038;-64
2023/04/23 02:32:14;;;;;;;397.23;87.88;;;7.70;99.90;;;;;;4962617;28;20223;-64
2023/04/23 02:34:39;;;;;;;332.95;88.25;;;7.60;99.90;;;;;;4982146;28;20125;-64
2023/04/23 02:37:05;;;;;;;471.10;96.10;;;7.50;99.90;;;;;;4960429;28;20496;-64
2023/04/23 02:39:31;;;;;;;460.85;103.55;;;7.50;99.90;;;;;;4983016;28;20348;-64
2023/04/23 02:41:58;;;;;;;360.55;92.90;;;7.60;99.90;;;;;;4965889;28;20340;-63
2023/04/23 02:44:24;;;;;;;403.05;99.57;;;7.60;99.90;;;;;;4961517;28;20057;-65
2023/04/23 02:46:51;;;;;;;331.30;93.93;;;7.60;99.90;;;;;;4960217;28;20281;-64
2023/04/23 02:49:18;;;;;;;245.77;80.70;;;7.40;99.90;;;;;;4961098;28;20849;-64
2023/04/23 02:51:45;;;;;;;305.77;94.03;;;7.40;99.90;;;;;;4942772;28;20038;-64
2023/04/23 02:54:11;;;;;;;269.63;91.47;;;7.60;99.90;;;;;;4944656;28;20414;-64
2023/04/23 02:56:36;;;;;;;242.77;86.55;;;7.60;99.90;;;;;;4939482;28;20357;-63
2023/04/23 02:59:02;;;;;;;273.40;86.70;;;7.50;99.90;;;;;;4979347;28;20076;-64
2023/04/23 03:01:28;;;;;;;270.67;83.55;;;7.40;99.90;;;;;;4957848;28;20049;-63
2023/04/23 03:03:54;;;;;;;357.08;107.72;;;7.40;99.90;;;;;;4962030;28;20052;-64
2023/04/23 03:06:20;;;;;;;304.27;96.63;;;7.40;99.90;;;;;;4979330;28;20674;-64
2023/04/23 03:08:45;;;;;;;320.63;98.30;;;7.30;99.90;;;;;;4977330;28;20038;-63
2023/04/23 03:11:11;;;;;;;317.48;92.68;;;7.10;99.90;;;;;;4964863;28;20118;-63
2023/04/23 03:13:37;;;;;;;296.17;90.38;;;7.00;99.90;;;;;;4964523;28;20483;-63
2023/04/23 03:16:04;;;;;;;292.75;92.00;;;7.10;99.90;;;;;;4963517;28;20054;-64
2023/04/23 03:18:30;;;;;;;288.52;95.35;;;7.20;99.90;;;;;;4957980;28;20054;-63
2023/04/23 03:20:56;;;;;;;307.55;95.68;;;7.20;99.90;;;;;;4957574;28;20541;-64
2023/04/23 03:23:22;;;;;;;329.85;96.32;;;7.00;99.90;;;;;;4941642;28;20046;-64
2023/04/23 03:25:47;;;;;;;315.63;97.60;;;7.00;99.90;;;;;;4954352;28;20446;-63
2023/04/23 03:28:13;;;;;;;365.42;103.30;;;7.00;99.90;;;;;;4957318;28;20509;-63
2023/04/23 03:30:39;;;;;;;414.50;107.20;;;7.00;99.90;;;;;;4961913;28;20193;-65
2023/04/23 03:33:04;;;;;;;356.75;99.57;;;6.90;99.90;;;;;;4941655;28;20556;-64
2023/04/23 03:35:30;;;;;;;412.92;109.10;;;6.80;99.90;;;;;;4961730;28;20214;-63
2023/04/23 03:37:56;;;;;;;373.75;108.00;;;6.90;99.90;;;;;;4961511;28;20070;-64
2023/04/23 03:40:22;;;;;;;339.88;101.72;;;6.70;99.90;;;;;;4960930;28;20133;-64
2023/04/23 03:42:48;;;;;;;359.50;108.25;;;6.80;99.90;;;;;;4957211;28;20130;-64
2023/04/23 03:45:15;;;;;;;298.23;93.15;;;6.80;99.90;;;;;;4952795;28;20685;-64
2023/04/23 03:47:41;;;;;;;268.80;94.13;;;6.70;99.90;;;;;;4953494;28;20505;-63
2023/04/23 03:50:08;;;;;;;229.98;86.50;;;6.80;99.90;;;;;;4939868;28;20042;-64
2023/04/23 03:52:34;;;;;;;238.52;88.78;;;6.50;99.90;;;;;;4955130;28;20112;-64
2023/04/23 03:55:00;;;;;;;243.55;88.40;;;6.50;99.90;;;;;;4938633;28;20105;-64
2023/04/23 03:57:25;;;;;;;237.63;90.00;;;6.60;99.90;;;;;;4957419;28;20043;-64
2023/04/23 03:59:51;;;;;;;254.77;92.50;;;6.50;99.90;;;;;;4964700;28;20551;-63
2023/04/23 04:02:17;;;;;;;234.75;88.72;;;6.70;99.90;;;;;;4956899;28;20129;-64
2023/04/23 04:04:44;;;;;;;252.40;91.47;;;6.40;99.90;;;;;;4936683;28;20042;-64
2023/04/23 04:07:11;;;;;;;270.80;96.93;;;6.60;99.90;;;;;;4959023;28;20066;-64
2023/04/23 04:09:37;;;;;;;255.98;98.13;;;6.60;99.90;;;;;;4942962;28;20125;-63
2023/04/23 04:12:04;;;;;;;287.63;99.72;;;6.60;99.90;;;;;;4957090;28;20113;-64
2023/04/23 04:14:31;;;;;;;245.73;80.38;;;6.60;99.90;;;;;;4955717;28;20049;-64
2023/04/23 04:16:56;;;;;;;207.85;70.35;;;6.40;99.90;;;;;;4946635;28;20101;-64
2023/04/23 04:19:22;;;;;;;243.60;76.45;;;6.40;99.90;;;;;;4954673;28;20137;-64
2023/04/23 04:21:48;;;;;;;255.32;80.00;;;6.40;99.90;;;;;;4940035;28;20079;-64
2023/04/23 04:24:14;;;;;;;241.85;81.45;;;6.40;99.90;;;;;;4934233;28;20043;-63
2023/04/23 04:26:40;;;;;;;238.45;78.72;;;6.50;99.90;;;;;;4921360;28;20106;-64
2023/04/23 04:29:08;;;;;;;245.18;81.10;;;6.60;99.90;;;;;;4937973;28;20047;-64
2023/04/23 04:31:33;;;;;;;245.25;90.93;;;6.70;99.90;;;;;;4920815;28;20035;-64
2023/04/23 04:33:59;;;;;;;250.65;92.95;;;6.60;99.90;;;;;;4937551;28;20034;-64
2023/04/23 04:36:26;;;;;;;262.60;94.82;;;6.60;99.90;;;;;;4938086;28;20133;-64
2023/04/23 04:38:54;;;;;;;264.77;95.28;;;6.80;99.90;;;;;;4918227;28;20244;-65
2023/04/23 04:41:21;;;;;;;244.23;91.90;;;6.80;99.90;;;;;;4933424;28;20062;-64
2023/04/23 04:43:47;;;;;;;256.65;93.45;;;6.90;99.90;;;;;;4943152;28;20505;-63
2023/04/23 04:46:14;;;;;;;249.48;99.07;;;6.90;99.90;;;;;;4938836;28;20431;-64
2023/04/23 04:48:40;;;;;;;242.73;94.22;;;7.00;99.90;;;;;;4937645;28;20047;-63
2023/04/23 04:51:06;;;;;;;245.10;97.68;;;7.10;99.90;;;;;;4924331;28;20802;-64
2023/04/23 04:53:32;;;;;;;248.73;98.85;;;7.20;99.90;;;;;;4938374;28;20050;-63
2023/04/23 04:55:57;;;;;;;244.77;99.72;;;7.30;99.90;;;;;;4936354;28;20405;-66
2023/04/23 04:58:23;;;;;;;235.25;94.20;;;7.30;99.90;;;;;;4934917;28;20620;-64
2023/04/23 05:00:50;;;;;;;234.75;90.82;;;7.10;99.90;;;;;;4933340;28;20537;-63
2023/04/23 05:03:20;;;;;;;222.15;90.97;;;7.40;99.90;;;;;;4920253;28;20058;-64
2023/04/23 05:05:47;;;;;;;215.18;90.78;;;7.60;99.90;;;;;;4935590;28;20469;-64
2023/04/23 05:08:17;;;;;;;238.05;96.03;;;7.40;99.90;;;;;;4937096;28;20043;-64
2023/04/23 05:10:43;;;;;;;226.93;94.05;;;7.50;99.90;;;;;;4942864;28;20078;-64
2023/04/23 05:13:09;;;;;;;214.35;93.10;;;7.80;99.90;;;;;;4938978;28;20090;-64
2023/04/23 05:15:35;;;;;;;216.95;88.95;;;7.80;99.90;;;;;;4925487;28;20130;-65
2023/04/23 05:18:05;;;;;;;215.90;95.72;;;7.80;99.90;;;;;;4937491;28;20508;-64
2023/04/23 05:20:31;;;;;;;204.00;86.20;;;7.70;99.90;;;;;;4943200;28;20576;-64
2023/04/23 05:23:01;;;;;;;219.55;91.93;;;7.80;99.90;;;;;;4974704;28;20046;-64
2023/04/23 05:25:28;;;;;;;227.15;93.03;;;8.00;99.90;;;;;;4956797;28;20310;-64
2023/04/23 05:27:54;;;;;;;218.88;94.40;;;7.80;99.90;;;;;;4955817;28;20513;-64
2023/04/23 05:30:19;;;;;;;204.93;85.28;;;7.80;99.90;;;;;;4975046;28;20095;-65
2023/04/23 05:32:45;;;;;;;222.98;90.65;;;8.10;99.90;;;;;;4943566;28;20088;-64
2023/04/23 05:35:11;;;;;;;215.48;92.75;;;7.90;99.90;;;;;;4958990;28;20173;-65
2023/04/23 05:37:36;;;;;;;197.80;82.07;;;8.30;99.90;;;;;;4962615;28;20497;-64
2023/04/23 05:40:05;;;;;;;208.00;90.97;;;8.10;99.90;;;;;;4965678;28;20242;-64
2023/04/23 05:42:31;;;;;;;202.88;89.03;;;8.10;99.90;;;;;;4941881;28;20433;-64
2023/04/23 05:44:57;;;;;;;221.55;93.90;;;8.20;99.90;;;;;;4963966;28;20684;-64
2023/04/23 05:47:22;;;;;;;231.48;100.32;;;8.30;99.90;;;;;;4961526;28;20047;-65
2023/04/23 05:49:48;;;;;;;207.65;92.07;;;8.10;99.90;;;;;;4943043;28;20655;-65
2023/04/23 05:52:14;;;;;;;195.93;87.40;;;8.20;99.90;;;;;;4909128;28;20332;-64
2023/04/23 05:54:40;;;;;;;219.00;97.00;;;8.40;99.90;;;;;;4960537;28;20046;-65
2023/04/23 05:57:06;;;;;;;220.13;99.20;;;8.40;99.90;;;;;;4957406;28;20391;-64
2023/04/23 05:59:32;;;;;;;190.70;83.90;;;8.40;99.90;;;;;;4957226;28;20125;-64
2023/04/23 06:01:58;;;;;;;203.45;89.53;;;8.60;99.90;;;;;;4963160;28;20085;-63
2023/04/23 06:04:24;;;;;;;223.05;99.47;;;8.50;99.90;;;;;;4960495;28;20137;-64
2023/04/23 06:06:50;;;;;;;226.77;101.57;;;8.30;99.90;;;;;;4944282;28;20038;-64
2023/04/23 06:09:16;;;;;;;222.60;99.63;;;8.40;99.90;;;;;;4947703;28;20561;-64
2023/04/23 06:11:41;;;;;;;198.43;92.65;;;8.40;99.90;;;;;;4962217;28;20451;-64
2023/04/23 06:14:07;;;;;;;208.15;97.40;;;8.60;99.90;;;;;;4956330;28;20049;-64
2023/04/23 06:16:32;;;;;;;185.63;85.72;;;8.50;99.90;;;;;;4963536;28;20051;-64
2023/04/23 06:18:58;;;;;;;192.13;89.53;;;8.70;99.90;;;;;;4944160;28;20390;-64
2023/04/23 06:21:26;;;;;;;206.55;93.22;;;8.70;99.90;;;;;;4939730;28;20354;-64
2023/04/23 06:23:52;;;;;;;190.20;89.03;;;8.70;99.90;;;;;;4940634;28;20047;-64
2023/04/23 06:26:17;;;;;;;211.10;99.50;;;8.50;99.90;;;;;;4941386;28;20061;-65
2023/04/23 06:28:45;;;;;;;200.43;94.65;;;8.60;99.90;;;;;;4940998;28;20043;-65
2023/04/23 06:31:11;;;;;;;184.85;92.47;;;8.90;99.90;;;;;;4940912;28;20220;-66
2023/04/23 06:33:37;;;;;;;186.52;94.85;;;8.90;99.90;;;;;;4940704;28;20819;-66
2023/04/23 06:36:09;;;;;;;193.40;97.45;;;8.80;99.90;;;;;;4939657;28;20043;-63
2023/04/23 06:38:35;;;;;;;194.27;97.63;;;8.90;99.90;;;;;;4923091;28;20043;-63
2023/04/23 06:41:02;;;;;;;173.15;88.10;;;9.20;99.90;;;;;;4937823;28;20066;-63
2023/04/23 06:43:28;;;;;;;173.00;92.22;;;9.30;99.90;;;;;;4946142;28;20678;-66
2023/04/23 06:45:55;;;;;;;180.05;93.85;;;9.00;99.90;;;;;;4924943;28;20046;-65
2023/04/23 06:48:21;;;;;;;157.27;84.70;;;9.30;99.90;;;;;;4940971;28;20376;-66
2023/04/23 06:50:47;;;;;;;159.57;87.65;;;9.40;99.90;;;;;;4939025;28;20320;-65
2023/04/23 06:53:13;;;;;;;163.95;91.93;;;9.60;99.90;;;;;;4941900;28;20535;-66
2023/04/23 06:55:39;;;;;;;154.65;88.85;;;9.70;99.90;;;;;;4942339;28;20321;-65
2023/04/23 06:58:06;;;;;;;144.50;86.80;;;9.70;99.90;;;;;;4943460;28;20065;-65
2023/04/23 07:00:32;;;;;;;131.05;79.22;;;9.90;99.90;;;;;;4937256;28;20731;-65
2023/04/23 07:02:58;;;;;;;135.20;82.47;;;10.00;99.90;;;;;;4936824;28;20567;-66
2023/04/23 07:05:23;;;;;;;132.25;81.95;;;10.00;99.90;;;;;;4923934;28;20055;-65
2023/04/23 07:07:49;;;;;;;126.88;82.18;;;10.10;99.90;;;;;;4940115;28;20100;-65
2023/04/23 07:10:15;;;;;;;108.07;70.82;;;10.30;99.90;;;;;;4952728;28;20419;-66
2023/04/23 07:12:40;;;;;;;110.45;73.28;;;10.40;99.90;;;;;;4919350;28;20063;-66
2023/04/23 07:15:07;;;;;;;102.40;72.22;;;10.40;99.90;;;;;;4939242;28;20096;-66
2023/04/23 07:17:33;;;;;;;100.80;70.45;;;10.80;99.90;;;;;;4944627;28;20066;-63
2023/04/23 07:19:59;;;;;;;91.50;65.78;;;11.20;99.90;;;;;;4940840;28;20146;-64
2023/04/23 07:22:25;;;;;;;84.35;63.28;;;11.50;99.90;;;;;;4923655;28;20042;-64
2023/04/23 07:24:51;;;;;;;77.70;59.95;;;11.70;99.90;;;;;;4911234;28;20073;-65
2023/04/23 07:27:18;;;;;;;77.53;58.85;;;11.90;99.90;;;;;;4939180;28;20109;-64
2023/04/23 07:29:44;;;;;;;73.18;55.60;;;12.10;99.90;;;;;;4936847;28;20496;-65
2023/04/23 07:32:10;;;;;;;74.97;57.70;;;12.00;99.90;;;;;;4934312;28;20121;-64
2023/04/23 07:34:36;;;;;;;69.38;52.22;;;12.30;99.90;;;;;;4936080;28;20051;-65
2023/04/23 07:37:02;;;;;;;70.03;55.30;;;12.50;99.90;;;;;;4922965;28;20082;-64
2023/04/23 07:39:28;;;;;;;67.07;53.03;;;12.80;99.90;;;;;;4909937;28;20606;-65
2023/04/23 07:41:55;;;;;;;64.70;51.80;;;12.90;99.90;;;;;;4938484;28;20126;-65
2023/04/23 07:44:21;;;;;;;66.45;53.60;;;13.00;99.90;;;;;;4940234;28;20114;-65
2023/04/23 07:46:47;;;;;;;59.88;47.65;;;13.10;99.90;;;;;;4936159;28;20046;-65
2023/04/23 07:49:13;;;;;;;66.10;54.88;;;13.10;93.70;;;;;;4937008;28;20397;-64
2023/04/23 07:51:38;;;;;;;59.97;48.42;;;13.20;99.90;;;;;;4933639;28;20102;-65
2023/04/23 07:54:04;;;;;;;55.85;47.88;;;13.00;9.30;;;;;;4944330;28;20039;-65
2023/04/23 07:56:31;;;;;;;57.58;47.88;;;13.10;1.00;;;;;;4907300;28;20755;-65
2023/04/23 07:58:57;;;;;;;56.15;48.35;;;13.20;1.00;;;;;;4937379;28;20094;-65
2023/04/23 08:01:24;;;;;;;48.70;40.55;;;13.30;1.00;;;;;;4944385;28;20054;-65
2023/04/23 08:03:49;;;;;;;55.20;44.33;;;13.40;99.90;;;;;;4935832;28;20114;-65
2023/04/23 08:06:17;;;;;;;54.83;44.67;;;13.10;99.90;;;;;;4935936;28;20050;-65
2023/04/23 08:08:43;;;;;;;57.75;48.40;;;13.00;99.90;;;;;;4920102;28;20320;-65
2023/04/23 08:11:09;;;;;;;53.85;43.75;;;12.80;99.90;;;;;;4924830;28;20042;-65
2023/04/23 08:13:35;;;;;;;52.67;43.35;;;12.80;99.90;;;;;;4908640;28;20051;-65
2023/04/23 08:16:01;;;;;;;53.20;46.28;;;13.00;99.90;;;;;;4936135;28;20387;-65
2023/04/23 08:18:28;;;;;;;51.90;43.97;;;13.20;99.90;;;;;;4943693;28;20448;-64
2023/04/23 08:20:55;;;;;;;51.97;43.83;;;13.20;99.90;;;;;;4953676;28;20116;-65
2023/04/23 08:23:20;;;;;;;52.08;46.22;;;13.40;99.90;;;;;;4945047;28;20742;-65
2023/04/23 08:25:46;;;;;;;53.05;44.33;;;13.60;99.90;;;;;;4955594;28;20228;-65
2023/04/23 08:28:12;;;;;;;52.10;46.42;;;13.80;99.90;;;;;;4941188;28;20031;-65
2023/04/23 08:30:38;;;;;;;53.92;44.92;;;13.50;99.90;;;;;;4965352;28;20042;-65
2023/04/23 08:33:03;;;;;;;49.83;44.03;;;13.30;99.90;;;;;;4957909;28;20034;-65
2023/04/23 08:35:29;;;;;;;50.95;44.20;;;13.10;99.90;;;;;;4961680;28;20436;-65
2023/04/23 08:37:55;;;;;;;50.38;40.38;;;13.40;99.90;;;;;;4961161;28;20076;-65
2023/04/23 08:40:21;;;;;;;46.25;41.05;;;14.00;99.90;;;;;;4960746;28;20288;-66
2023/04/23 08:42:56;;;;;;;44.47;39.67;;;14.40;99.90;;;;;;4964143;28;20048;-65
2023/04/23 08:45:23;;;;;;;45.28;40.50;;;14.40;99.90;;;;;;4966523;28;20116;-65
2023/04/23 08:47:49;;;;;;;42.13;37.60;;;14.40;1.00;;;;;;4958790;28;20049;-65
2023/04/23 08:50:17;;;;;;;42.85;38.28;;;14.90;83.40;;;;;;4940325;28;20034;-65
2023/04/23 08:52:49;;;;;;;41.03;36.58;;;15.20;1.00;;;;;;4957980;28;20592;-66
2023/04/23 08:55:17;;;;;;;41.55;37.08;;;15.30;1.00;;;;;;4961361;28;20649;-65
2023/04/23 08:57:44;;;;;;;38.58;34.53;;;15.50;99.90;;;;;;4972314;28;20039;-66
2023/04/23 09:00:12;;;;;;;36.83;32.90;;;15.80;1.00;;;;;;4958040;28;20190;-65
2023/04/23 09:02:40;;;;;;;32.90;28.98;;;15.90;99.90;;;;;;4975167;28;20034;-66
2023/04/23 09:05:07;;;;;;;32.33;28.17;;;15.80;99.90;;;;;;4956123;28;20065;-66
2023/04/23 09:07:33;;;;;;;34.67;30.23;;;16.00;99.90;;;;;;4958910;28;20588;-66
2023/04/23 09:10:00;;;;;;;29.52;25.85;;;16.10;99.90;;;;;;4954390;28;20054;-65
2023/04/23 09:12:26;;;;;;;29.90;26.65;;;16.20;99.90;;;;;;4958005;28;20045;-65
2023/04/23 09:14:51;;;;;;;30.15;26.10;;;16.40;99.90;;;;;;4959074;28;20573;-65
2023/04/23 09:17:18;;;;;;;29.30;26.25;;;16.40;99.90;;;;;;4940905;28;20046;-65
2023/04/23 09:19:45;;;;;;;29.15;26.05;;;16.60;99.90;;;;;;4961067;28;20052;-65
2023/04/23 09:22:11;;;;;;;28.83;25.73;;;17.10;99.90;;;;;;4957762;28;20088;-65
2023/04/23 09:24:41;;;;;;;28.52;25.30;;;17.40;99.90;;;;;;4973187;28;20053;-65
2023/04/23 09:27:06;;;;;;;28.38;24.80;;;17.50;99.90;;;;;;4955447;28;20074;-65
2023/04/23 09:29:32;;;;;;;28.00;25.00;;;17.50;99.90;;;;;;4925223;28;20286;-65
2023/04/23 09:32:08;;;;;;;28.35;24.40;;;17.20;99.90;;;;;;4963455;28;20251;-65
2023/04/23 09:34:37;;;;;;;24.80;22.23;;;17.00;99.90;;;;;;4961806;28;20531;-65
2023/04/23 09:37:05;;;;;;;24.02;21.17;;;17.30;99.90;;;;;;4957923;28;20250;-66
2023/04/23 09:39:33;;;;;;;25.75;23.02;;;18.00;99.90;;;;;;4964727;28;20805;-65
2023/04/23 09:42:03;;;;;;;23.70;19.05;;;18.30;99.90;;;;;;4962641;28;20061;-65
2023/04/23 09:44:32;;;;;;;23.98;20.80;;;18.20;99.90;;;;;;4958951;28;20038;-65
2023/04/23 09:47:13;;;;;;;21.52;18.55;;;18.30;99.90;;;;;;4961550;28;20091;-65
2023/04/23 09:49:46;;;;;;;21.98;17.27;;;18.40;99.90;;;;;;4958258;28;20054;-66
2023/04/23 09:52:12;;;;;;;17.73;15.82;;;18.70;99.90;;;;;;4959215;28;20586;-66
2023/04/23 09:54:38;;;;;;;15.77;13.80;;;18.80;99.90;;;;;;4940737;28;20038;-66
2023/04/23 09:57:07;;;;;;;16.77;13.73;;;18.90;99.90;;;;;;4945176;28;20133;-66
2023/04/23 09:59:37;;;;;;;16.00;13.27;;;18.50;99.90;;;;;;4960887;28;20124;-65
2023/04/23 10:02:05;;;;;;;15.90;14.02;;;17.90;99.90;;;;;;4975847;28;20046;-66
2023/04/23 10:04:32;;;;;;;18.08;14.32;;;17.40;99.90;;;;;;4977377;28;20046;-66
2023/04/23 10:07:00;;;;;;;18.58;13.65;;;17.00;99.90;;;;;;4946380;28;20448;-65
2023/04/23 10:09:27;;;;;;;19.60;15.30;;;16.80;99.90;;;;;;4966952;28;20041;-65
2023/04/23 10:11:58;;;;;;;19.88;15.25;;;16.70;99.90;;;;;;4963653;28;20034;-66
2023/04/23 10:14:25;;;;;;;17.08;13.95;;;16.60;99.90;;;;;;4963951;28;20476;-66
2023/04/23 10:17:00;;;;;;;13.45;10.43;;;17.20;99.90;;;;;;4950304;28;20123;-65
2023/04/23 10:19:27;;;;;;;13.13;9.88;;;17.80;99.90;;;;;;4962894;28;20120;-65
2023/04/23 10:22:04;;;;;;;11.80;10.10;;;18.50;99.90;;;;;;4945492;28;20101;-65
2023/04/23 10:24:32;;;;;;;11.30;9.13;;;18.80;35.80;;;;;;4966164;28;20880;-65
2023/04/23 10:27:03;;;;;;;11.07;8.77;;;19.20;51.00;;;;;;4939064;28;20395;-66
2023/04/23 10:29:31;;;;;;;12.07;9.43;;;19.60;7.50;;;;;;4942171;28;20070;-66
2023/04/23 10:32:00;;;;;;;12.13;8.68;;;19.90;1.00;;;;;;4965273;28;20113;-66
2023/04/23 10:34:27;;;;;;;9.13;6.97;;;20.00;1.00;;;;;;4963226;28;20054;-65
2023/04/23 10:36:54;;;;;;;9.07;7.30;;;20.30;1.00;;;;;;4979366;28;20364;-65
2023/04/23 10:39:21;;;;;;;8.20;6.25;;;19.70;99.90;;;;;;4960943;28;20124;-65
2023/04/23 10:41:48;;;;;;;10.00;7.15;;;18.80;99.90;;;;;;4962556;28;20217;-66
2023/04/23 10:44:17;;;;;;;10.50;6.78;;;18.20;1.00;;;;;;4962714;28;20084;-65
2023/04/23 10:46:56;;;;;;;8.95;7.10;;;17.80;1.00;;;;;;4970224;28;20084;-65
2023/04/23 10:49:23;;;;;;;10.40;7.15;;;17.50;1.00;;;;;;4958576;28;20476;-65
2023/04/23 10:52:00;;;;;;;8.80;6.50;;;17.80;57.10;;;;;;4948577;28;20069;-65
2023/04/23 10:54:33;;;;;;;9.23;6.60;;;18.00;4.00;;;;;;4961631;28;20053;-65
2023/04/23 10:57:05;;;;;;;8.30;5.85;;;18.00;1.00;;;;;;4959638;28;20125;-65
2023/04/23 10:59:33;;;;;;;8.60;5.53;;;18.30;1.00;;;;;;4969850;28;20039;-65
2023/04/23 11:02:05;;;;;;;7.95;5.10;;;19.10;1.00;;;;;;4956587;28;20050;-65
2023/04/23 11:04:33;;;;;;;9.38;5.85;;;19.90;1.00;;;;;;4959302;28;20053;-65
2023/04/23 11:07:10;;;;;;;8.80;6.68;;;20.20;99.90;;;;;;4961176;28;20521;-65
2023/04/23 11:09:36;;;;;;;9.32;6.18;;;20.30;99.90;;;;;;4957071;28;20046;-64
2023/04/23 11:12:04;;;;;;;8.77;5.93;;;20.40;99.90;;;;;;4979187;28;20064;-65
2023/04/23 11:14:42;;;;;;;8.90;6.03;;;20.60;99.90;;;;;;4965207;28;20149;-65
2023/04/23 11:17:12;;;;;;;7.10;4.68;;;20.90;99.90;;;;;;4948482;28;20386;-65
2023/04/23 11:19:39;;;;;;;7.63;4.38;;;20.80;99.90;;;;;;4985079;28;20054;-64
2023/04/23 11:22:17;;;;;;;6.93;4.45;;;20.50;99.90;;;;;;4956859;28;20042;-65
2023/04/23 11:24:44;;;;;;;6.45;3.70;;;19.80;99.90;;;;;;4951131;28;20050;-65
2023/04/23 11:27:18;;;;;;;7.55;4.03;;;19.50;99.90;;;;;;4977668;28;20484;-65
2023/04/23 11:29:45;;;;;;;8.63;3.97;;;19.90;99.90;;;;;;4960967;28;20501;-64
2023/04/23 11:32:14;;;;;;;7.32;3.58;;;20.30;99.90;;;;;;4956644;28;20038;-65
2023/04/23 11:34:45;;;;;;;6.45;2.28;;;20.70;99.90;;;;;;4967685;28;20065;-65
2023/04/23 11:37:12;;;;;;;5.65;2.00;;;20.30;99.90;;;;;;4956864;28;20057;-65
2023/04/23 11:39:40;;;;;;;5.68;1.90;;;20.30;99.90;;;;;;4957290;28;20307;-65
2023/04/23 11:42:13;;;;;;;7.18;2.08;;;20.10;99.90;;;;;;4962073;28;20049;-64
2023/04/23 11:44:40;;;;;;;6.70;1.80;;;19.60;99.90;;;;;;4966975;28;20680;-66
2023/04/23 11:47:11;;;;;;;7.93;1.83;;;19.40;99.90;;;;;;4947774;28;20046;-63
2023/04/23 11:49:39;;;;;;;6.25;1.75;;;19.40;99.90;;;;;;4964948;28;20045;-64
2023/04/23 11:52:05;;;;;;;5.85;2.17;;;19.30;99.90;;;;;;4973336;28;20084;-66
2023/04/23 11:54:32;;;;;;;6.70;1.98;;;19.20;99.90;;;;;;4949412;28;20866;-67
2023/04/23 11:56:58;;;;;;;6.07;1.75;;;18.90;99.90;;;;;;4964995;28;20133;-65
2023/04/23 11:59:25;;;;;;;7.45;1.58;;;18.70;99.90;;;;;;4963904;28;20213;-66
2023/04/23 12:01:54;;;;;;;5.90;1.33;;;18.90;99.90;;;;;;4962763;28;20460;-65
2023/04/23 12:04:29;;;;;;;5.15;1.35;;;19.40;99.90;;;;;;4940583;28;20077;-65
2023/04/23 12:06:56;;;;;;;4.60;1.35;;;19.70;99.90;;;;;;4959029;28;20148;-63
2023/04/23 12:09:27;;;;;;;3.95;1.10;;;19.90;99.90;;;;;;4960473;28;20057;-63
2023/04/23 12:11:55;;;;;;;5.05;0.90;;;19.70;99.90;;;;;;4974258;28;20100;-64
2023/04/23 12:14:29;;;;;;;4.43;1.15;;;19.60;99.90;;;;;;4960647;28;20454;-64
2023/04/23 12:16:55;;;;;;;4.07;0.95;;;19.80;99.90;;;;;;4973597;28;20674;-64
2023/04/23 12:19:27;;;;;;;6.15;1.02;;;20.40;99.90;;;;;;4953907;28;20540;-65
2023/04/23 12:22:01;;;;;;;4.85;1.00;;;20.60;99.90;;;;;;4980397;28;20290;-65
2023/04/23 12:24:44;;;;;;;5.30;1.00;;;20.50;99.90;;;;;;4959366;28;20397;-65
2023/04/23 12:27:14;;;;;;;4.32;0.90;;;20.20;99.90;;;;;;4968101;28;20115;-65
2023/04/23 12:29:40;;;;;;;32.53;2.40;;;19.90;99.90;;;;;;4939643;28;20050;-65